Time;durP1;ratioP1;P1;durP2;ratioP2;P2;SDS_P1;SDS_P2;PMS_P1;PMS_P2;Temp;Humidity;BMP_temperature;BMP_pressure;BME280_temperature;BME280_humidity;BME280_pressure;Samples;Min_cycle;Max_cycle;Signal;HPM_P1;HPM_P2
2023/05/06 00:00:11;;;;;;;7.30;6.60;;;;;;;10.27;79.48;99106.95;105580;1253;60605;-72
2023/05/06 00:02:59;;;;;;;11.00;6.90;;;;;;;10.24;79.55;99107.48;105790;1255;67310;-72
2023/05/06 00:05:25;;;;;;;8.90;6.30;;;;;;;10.23;79.94;99105.05;105559;1252;60847;-73
2023/05/06 00:07:52;;;;;;;9.80;6.70;;;;;;;10.24;80.49;99109.10;105749;1257;62831;-72
2023/05/06 00:10:18;;;;;;;10.20;6.70;;;;;;;10.24;80.56;99108.36;105845;1255;60541;-73
2023/05/06 00:12:45;;;;;;;10.60;7.00;;;;;;;10.24;80.61;99113.86;105712;1257;60442;-72
2023/05/06 00:15:12;;;;;;;9.70;6.90;;;;;;;10.24;80.80;99111.41;105700;1256;74355;-73
2023/05/06 00:17:38;;;;;;;9.40;7.30;;;;;;;10.25;80.92;99109.73;105494;1254;60496;-72
2023/05/06 00:20:06;;;;;;;10.60;7.00;;;;;;;10.26;80.97;99106.80;105677;1254;60522;-73
2023/05/06 00:22:32;;;;;;;8.90;7.30;;;;;;;10.25;80.77;99106.33;105441;1260;60585;-73
2023/05/06 00:24:59;;;;;;;11.00;7.60;;;;;;;10.23;80.77;99104.01;105686;1254;60413;-74
2023/05/06 00:27:26;;;;;;;8.20;7.30;;;;;;;10.20;80.92;99100.33;105681;1254;60461;-71
2023/05/06 00:29:52;;;;;;;8.90;7.40;;;;;;;10.16;81.09;99097.38;105716;1258;60362;-72
2023/05/06 00:32:19;;;;;;;9.00;7.40;;;;;;;10.13;81.35;99091.86;105680;1256;60323;-73
2023/05/06 00:34:45;;;;;;;9.00;7.10;;;;;;;10.11;81.56;99088.98;105468;1256;60597;-72
2023/05/06 00:37:12;;;;;;;10.90;8.10;;;;;;;10.08;81.72;99084.90;105724;1254;60844;-73
2023/05/06 00:39:38;;;;;;;7.70;6.90;;;;;;;10.04;81.98;99079.98;105716;1256;60499;-72
2023/05/06 00:42:05;;;;;;;9.40;7.90;;;;;;;10.01;82.24;99077.70;105678;1256;60432;-72
2023/05/06 00:44:31;;;;;;;11.80;8.20;;;;;;;9.97;82.74;99079.17;105686;1254;60484;-72
2023/05/06 00:46:59;;;;;;;11.10;8.30;;;;;;;9.93;82.88;99079.08;105539;1256;60554;-72
2023/05/06 00:49:28;;;;;;;11.30;8.00;;;;;;;9.88;82.87;99078.14;105805;1256;60480;-72
2023/05/06 00:51:56;;;;;;;10.90;8.00;;;;;;;9.83;83.36;99074.37;105835;1257;66979;-73
2023/05/06 00:54:25;;;;;;;10.90;7.90;;;;;;;9.78;83.67;99071.66;105802;1258;60770;-72
2023/05/06 00:56:52;;;;;;;13.50;8.30;;;;;;;9.74;84.07;99069.98;105835;1256;63618;-72
2023/05/06 00:59:19;;;;;;;8.70;7.70;;;;;;;9.70;84.77;99071.13;105786;1258;60468;-72
2023/05/06 01:01:46;;;;;;;10.40;8.10;;;;;;;9.65;84.71;99071.93;105805;1257;60906;-72
2023/05/06 01:04:12;;;;;;;10.40;8.30;;;;;;;9.60;84.88;99078.98;105837;1255;64015;-72
2023/05/06 01:07:05;;;;;;;10.70;8.10;;;;;;;9.57;85.19;99083.83;105861;1255;60904;-72
2023/05/06 01:09:40;;;;;;;9.10;7.90;;;;;;;9.52;85.36;99079.85;105615;1256;64879;-73
2023/05/06 01:12:26;;;;;;;9.90;7.80;;;;;;;9.49;85.77;99083.61;105823;1255;60440;-73
2023/05/06 01:15:05;;;;;;;8.30;7.40;;;;;;;9.44;86.34;99087.40;105732;1254;60533;-73
2023/05/06 01:17:34;;;;;;;8.80;7.90;;;;;;;9.41;86.55;99087.45;105901;1255;65328;-73
2023/05/06 01:20:05;;;;;;;9.80;7.70;;;;;;;9.37;87.21;99085.73;106114;1253;60572;-73
2023/05/06 01:22:35;;;;;;;10.40;8.20;;;;;;;9.35;87.44;99084.07;105962;1255;63867;-74
2023/05/06 01:25:01;;;;;;;;;;;;;;;9.33;88.05;99078.35;105786;1252;60492;-72
2023/05/06 01:27:29;;;;;;;10.30;7.90;;;;;;;9.30;88.28;99079.42;105814;1255;60428;-71
2023/05/06 01:29:57;;;;;;;10.20;8.10;;;;;;;9.28;88.41;99081.52;105569;1253;65294;-72
2023/05/06 01:32:43;;;;;;;9.40;8.50;;;;;;;9.25;88.56;99079.23;105770;1255;60299;-72
2023/05/06 01:35:35;;;;;;;11.60;8.60;;;;;;;9.20;89.59;99080.34;105769;1253;71888;-72
2023/05/06 01:38:32;;;;;;;11.40;8.80;;;;;;;9.18;89.71;99075.00;105761;1253;60355;-71
2023/05/06 01:41:00;;;;;;;9.50;8.50;;;;;;;9.16;89.97;99079.00;105773;1253;60445;-73
2023/05/06 01:43:31;;;;;;;9.10;8.20;;;;;;;9.15;90.17;99077.31;106014;1253;64851;-73
2023/05/06 01:46:00;;;;;;;10.90;8.70;;;;;;;9.12;90.31;99078.77;105550;1254;60513;-73
2023/05/06 01:48:32;;;;;;;10.70;8.80;;;;;;;9.08;90.25;99078.27;109507;1252;63551;-73
2023/05/06 01:50:59;;;;;;;9.90;8.60;;;;;;;9.04;90.01;99076.91;109191;1251;58242;-74
2023/05/06 01:53:25;;;;;;;10.30;8.50;;;;;;;9.02;90.83;99077.90;109531;1251;58154;-73
2023/05/06 01:55:52;;;;;;;10.00;7.90;;;;;;;9.00;91.10;99075.69;109499;1252;58509;-73
2023/05/06 01:58:19;;;;;;;10.20;8.10;;;;;;;8.98;91.23;99077.41;109538;1252;58180;-72
2023/05/06 02:00:45;;;;;;;9.50;8.60;;;;;;;8.96;91.54;99080.75;109529;1252;64094;-72
2023/05/06 02:03:12;;;;;;;10.10;7.90;;;;;;;8.94;91.84;99078.20;109517;1251;58248;-71
2023/05/06 02:05:38;;;;;;;9.80;8.20;;;;;;;8.93;92.43;99074.91;109548;1252;58210;-72
2023/05/06 02:08:05;;;;;;;9.30;8.10;;;;;;;8.92;92.55;99075.69;109529;1253;58138;-72
2023/05/06 02:10:31;;;;;;;10.50;8.80;;;;;;;8.89;92.84;99067.86;109548;1252;58217;-73
2023/05/06 02:12:58;;;;;;;10.10;8.90;;;;;;;8.88;92.73;99064.17;109345;1253;58389;-72
2023/05/06 02:15:24;;;;;;;11.60;8.50;;;;;;;8.88;93.32;99060.67;109481;1251;58145;-72
2023/05/06 02:17:51;;;;;;;9.50;7.50;;;;;;;8.87;94.07;99060.01;109544;1251;58154;-72
2023/05/06 02:20:17;;;;;;;10.00;8.20;;;;;;;8.87;94.27;99060.39;109516;1253;65261;-72
2023/05/06 02:22:44;;;;;;;10.60;8.40;;;;;;;8.86;94.43;99060.27;109514;1252;58193;-73
2023/05/06 02:25:10;;;;;;;8.70;7.80;;;;;;;8.84;94.65;99061.64;109562;1252;64050;-72
2023/05/06 02:27:37;;;;;;;10.70;9.00;;;;;;;8.81;94.69;99060.74;109534;1252;58151;-72
2023/05/06 02:30:05;;;;;;;11.00;8.50;;;;;;;8.78;95.45;99056.81;109488;1251;58093;-72
2023/05/06 02:32:32;;;;;;;10.70;8.10;;;;;;;8.75;95.45;99054.66;109374;1252;65222;-73
2023/05/06 02:34:58;;;;;;;10.30;8.00;;;;;;;8.74;96.01;99054.05;109538;1253;60186;-72
2023/05/06 02:37:25;;;;;;;11.30;8.60;;;;;;;8.72;96.03;99057.86;109500;1252;64014;-72
2023/05/06 02:39:51;;;;;;;10.30;8.30;;;;;;;8.70;96.19;99053.94;109501;1255;58217;-72
2023/05/06 02:42:18;;;;;;;12.20;8.70;;;;;;;8.67;95.98;99056.78;109568;1252;58215;-72
2023/05/06 02:44:44;;;;;;;9.00;7.70;;;;;;;8.63;97.08;99051.51;109563;1253;65209;-73
2023/05/06 02:47:11;;;;;;;10.80;8.60;;;;;;;8.61;97.41;99050.91;109571;1253;60104;-72
2023/05/06 02:49:38;;;;;;;11.00;8.60;;;;;;;8.59;97.19;99053.33;109386;1251;64072;-72
2023/05/06 02:52:04;;;;;;;10.90;8.60;;;;;;;8.57;97.62;99048.78;109530;1252;58163;-72
2023/05/06 02:54:31;;;;;;;10.80;7.60;;;;;;;8.55;97.58;99049.79;109360;1252;58222;-72
2023/05/06 02:56:57;;;;;;;10.30;8.10;;;;;;;8.54;97.72;99051.98;109564;1252;65245;-72
2023/05/06 02:59:24;;;;;;;9.70;8.00;;;;;;;8.53;97.85;99052.59;109542;1252;58465;-72
2023/05/06 03:01:50;;;;;;;9.70;8.50;;;;;;;8.51;98.33;99046.18;109523;1252;64073;-72
2023/05/06 03:04:17;;;;;;;13.40;8.80;;;;;;;8.49;98.59;99044.31;109528;1252;58245;-71
2023/05/06 03:06:43;;;;;;;10.40;8.80;;;;;;;8.48;99.37;99045.09;109503;1252;58400;-73
2023/05/06 03:09:10;;;;;;;10.30;8.10;;;;;;;8.47;99.51;99040.91;109501;1252;58147;-73
2023/05/06 03:11:37;;;;;;;10.10;8.60;;;;;;;8.46;99.91;99039.20;109514;1253;60104;-73
2023/05/06 03:14:03;;;;;;;10.00;8.10;;;;;;;8.45;99.98;99041.58;109536;1252;64123;-73
2023/05/06 03:16:30;;;;;;;9.10;8.20;;;;;;;8.43;100.00;99043.81;109566;1252;58212;-71
2023/05/06 03:18:56;;;;;;;9.60;8.10;;;;;;;8.43;100.00;99049.30;109512;1254;58051;-72
2023/05/06 03:21:23;;;;;;;12.10;9.60;;;;;;;8.45;100.00;99046.89;109539;1252;58297;-72
2023/05/06 03:23:49;;;;;;;9.50;8.50;;;;;;;8.46;100.00;99044.33;109512;1252;58120;-72
2023/05/06 03:26:16;;;;;;;10.10;8.60;;;;;;;8.48;100.00;99047.07;109545;1251;58271;-72
2023/05/06 03:28:44;;;;;;;11.10;9.90;;;;;;;8.48;100.00;99042.23;109528;1253;58376;-72
2023/05/06 03:31:11;;;;;;;13.30;11.20;;;;;;;8.49;100.00;99040.95;109502;1252;58066;-72
2023/05/06 03:33:38;;;;;;;19.40;14.20;;;;;;;8.51;100.00;99038.75;109393;1252;64012;-72
2023/05/06 03:36:05;;;;;;;11.70;9.50;;;;;;;8.52;100.00;99039.02;109531;1255;58109;-72
2023/05/06 03:38:31;;;;;;;16.30;12.90;;;;;;;8.54;100.00;99038.21;109492;1252;64067;-72
2023/05/06 03:40:58;;;;;;;11.20;10.10;;;;;;;8.56;100.00;99038.43;109525;1252;58132;-72
2023/05/06 03:43:24;;;;;;;14.80;11.50;;;;;;;8.58;100.00;99037.60;109204;1252;58320;-72
2023/05/06 03:45:50;;;;;;;12.50;10.20;;;;;;;8.60;100.00;99035.54;109508;1252;64142;-72
2023/05/06 03:48:17;;;;;;;13.50;9.60;;;;;;;8.62;100.00;99037.71;109550;1252;60195;-72
2023/05/06 03:50:44;;;;;;;12.00;9.70;;;;;;;8.65;100.00;99036.69;109507;1252;58230;-72
2023/05/06 03:53:10;;;;;;;10.40;9.20;;;;;;;8.67;100.00;99037.41;109180;1252;58217;-74
2023/05/06 03:55:37;;;;;;;9.20;8.30;;;;;;;8.70;100.00;99040.24;109531;1251;58353;-72
2023/05/06 03:58:03;;;;;;;13.80;9.00;;;;;;;8.74;100.00;99039.52;109535;1253;58144;-71
2023/05/06 04:00:30;;;;;;;13.90;9.20;;;;;;;8.76;100.00;99041.49;109532;1253;58239;-73
2023/05/06 04:02:56;;;;;;;11.80;9.50;;;;;;;8.79;100.00;99036.73;109479;1253;62854;-72
2023/05/06 04:05:23;;;;;;;11.60;9.30;;;;;;;8.82;100.00;99037.48;109518;1252;58148;-74
2023/05/06 04:07:49;;;;;;;13.80;9.60;;;;;;;8.85;100.00;99036.38;109239;1254;58216;-72
2023/05/06 04:10:16;;;;;;;9.90;8.60;;;;;;;8.89;100.00;99041.45;109188;1253;64054;-72
2023/05/06 04:12:43;;;;;;;12.00;8.60;;;;;;;8.94;100.00;99044.02;109468;1252;60146;-72
2023/05/06 04:15:10;;;;;;;11.30;9.20;;;;;;;8.96;100.00;99043.14;109499;1253;62794;-72
2023/05/06 04:17:36;;;;;;;10.10;7.80;;;;;;;9.00;100.00;99046.45;109172;1253;58508;-73
2023/05/06 04:20:05;;;;;;;12.10;9.60;;;;;;;9.05;100.00;99046.91;109506;1252;58567;-72
2023/05/06 04:22:32;;;;;;;11.10;9.80;;;;;;;9.09;100.00;99044.51;109532;1252;65335;-72
2023/05/06 04:25:00;;;;;;;11.60;9.30;;;;;;;9.14;100.00;99046.14;109290;1253;60133;-72
2023/05/06 04:27:28;;;;;;;13.00;9.70;;;;;;;9.20;100.00;99045.13;109531;1252;62837;-74
2023/05/06 04:29:55;;;;;;;13.40;9.50;;;;;;;9.25;100.00;99046.06;109540;1253;58251;-73
2023/05/06 04:32:25;;;;;;;11.60;9.50;;;;;;;9.28;100.00;99049.20;109543;1252;58316;-72
2023/05/06 04:34:52;;;;;;;16.20;10.40;;;;;;;9.34;100.00;99053.30;109546;1252;64023;-73
2023/05/06 04:37:19;;;;;;;20.50;12.20;;;;;;;9.43;100.00;99057.19;109545;1252;58914;-74
2023/05/06 04:39:47;;;;;;;15.50;10.80;;;;;;;9.54;100.00;99058.83;109214;1253;64060;-73
2023/05/06 04:42:15;;;;;;;15.20;10.80;;;;;;;9.64;100.00;99057.62;109579;1252;58641;-75
2023/05/06 04:44:42;;;;;;;18.40;12.60;;;;;;;9.75;99.78;99054.64;109525;1252;58233;-74
2023/05/06 04:47:08;;;;;;;12.70;10.10;;;;;;;9.85;98.44;99047.63;109542;1253;65225;-72
2023/05/06 04:49:35;;;;;;;11.10;8.40;;;;;;;9.97;97.50;99044.03;109583;1252;60204;-74
2023/05/06 04:52:01;;;;;;;10.50;8.40;;;;;;;10.14;96.83;99044.04;109229;1253;62848;-72
2023/05/06 04:54:28;;;;;;;12.20;9.10;;;;;;;10.27;95.57;99043.93;109505;1252;58051;-72
2023/05/06 04:56:54;;;;;;;11.00;8.30;;;;;;;10.34;94.67;99044.70;109513;1251;58520;-72
2023/05/06 04:59:21;;;;;;;11.10;8.50;;;;;;;10.38;94.24;99040.59;109524;1253;63998;-73
2023/05/06 05:01:47;;;;;;;9.10;8.10;;;;;;;10.45;93.78;99036.70;109505;1252;60102;-73
2023/05/06 05:04:13;;;;;;;8.30;7.40;;;;;;;10.56;92.83;99029.25;109539;1252;62647;-72
2023/05/06 05:06:40;;;;;;;8.30;7.30;;;;;;;10.73;91.80;99026.51;109517;1253;58256;-73
2023/05/06 05:09:07;;;;;;;11.70;10.40;;;;;;;10.92;90.93;99025.75;109531;1252;58513;-73
2023/05/06 05:11:36;;;;;;;9.10;7.80;;;;;;;11.08;90.03;99027.49;109495;1253;65207;-73
2023/05/06 05:14:03;;;;;;;10.70;8.70;;;;;;;11.22;88.98;99025.67;109514;1253;60133;-73
2023/05/06 05:16:30;;;;;;;17.80;12.00;;;;;;;11.33;88.44;99023.88;109529;1252;58608;-73
2023/05/06 05:18:56;;;;;;;8.70;7.70;;;;;;;11.33;87.85;99024.55;109525;1251;58290;-73
2023/05/06 05:21:23;;;;;;;8.90;7.40;;;;;;;11.28;86.82;99020.11;109267;1253;58041;-73
2023/05/06 05:23:49;;;;;;;11.10;7.60;;;;;;;11.25;86.47;99016.23;109474;1254;58565;-73
2023/05/06 05:26:22;;;;;;;11.30;8.10;;;;;;;11.27;86.31;99015.38;109545;1253;58608;-73
2023/05/06 05:28:48;;;;;;;9.90;7.70;;;;;;;11.37;86.15;99018.57;109521;1253;63779;-73
2023/05/06 05:31:15;;;;;;;8.80;7.90;;;;;;;11.58;85.63;99018.38;109495;1252;58288;-73
2023/05/06 05:33:41;;;;;;;8.90;8.00;;;;;;;11.81;84.60;99013.70;109214;1253;59850;-73
2023/05/06 05:36:08;;;;;;;8.50;7.30;;;;;;;11.85;83.97;99008.79;109470;1252;58529;-72
2023/05/06 05:38:34;;;;;;;8.10;7.30;;;;;;;11.89;83.74;99004.63;109214;1253;58920;-72
2023/05/06 05:41:01;;;;;;;8.80;7.30;;;;;;;12.00;83.38;99003.61;109505;1252;58221;-74
2023/05/06 05:43:27;;;;;;;9.50;7.30;;;;;;;12.17;82.60;99005.37;109268;1253;58179;-73
2023/05/06 05:45:53;;;;;;;11.00;8.00;;;;;;;12.50;81.61;99003.65;109525;1253;58138;-72
2023/05/06 05:48:20;;;;;;;9.30;8.10;;;;;;;12.89;80.14;99003.42;109540;1253;58141;-73
2023/05/06 05:50:46;;;;;;;10.30;7.90;;;;;;;13.11;79.50;99005.63;109517;1252;58231;-73
2023/05/06 05:53:13;;;;;;;7.90;7.20;;;;;;;13.27;79.22;98995.03;109487;1253;58231;-73
2023/05/06 05:55:39;;;;;;;9.40;7.10;;;;;;;13.37;78.54;98994.73;109379;1252;58202;-72
2023/05/06 05:58:06;;;;;;;11.00;7.70;;;;;;;13.38;77.33;98998.20;109552;1252;58176;-74
2023/05/06 06:00:33;;;;;;;9.00;8.10;;;;;;;13.39;76.96;98996.33;109512;1252;58577;-74
2023/05/06 06:02:59;;;;;;;9.10;7.00;;;;;;;13.45;77.08;98993.93;109500;1253;60121;-73
2023/05/06 06:05:26;;;;;;;7.40;6.70;;;;;;;13.47;76.24;98994.12;109514;1252;64580;-73
2023/05/06 06:07:52;;;;;;;10.10;7.40;;;;;;;13.32;75.80;98990.70;109495;1252;58271;-73
2023/05/06 06:10:19;;;;;;;9.40;7.80;;;;;;;13.29;76.47;98992.89;109476;1252;58210;-73
2023/05/06 06:12:46;;;;;;;12.10;8.40;;;;;;;13.36;76.69;98986.91;109482;1253;58484;-73
2023/05/06 06:15:12;;;;;;;9.00;8.10;;;;;;;13.45;76.75;98982.36;109507;1253;59854;-73
2023/05/06 06:17:39;;;;;;;10.40;8.60;;;;;;;13.49;76.29;98979.57;109513;1252;58200;-72
2023/05/06 06:20:07;;;;;;;9.20;7.80;;;;;;;13.52;76.33;98977.53;109485;1253;58173;-74
2023/05/06 06:22:33;;;;;;;8.50;7.40;;;;;;;13.59;75.87;98980.48;109174;1254;58248;-72
2023/05/06 06:25:00;;;;;;;8.00;7.30;;;;;;;13.59;74.86;98980.69;109341;1255;58595;-73
2023/05/06 06:27:26;;;;;;;8.90;7.30;;;;;;;13.57;74.47;98980.16;109501;1253;60142;-73
2023/05/06 06:29:53;;;;;;;7.80;7.10;;;;;;;13.57;74.14;98975.85;109498;1253;62834;-73
2023/05/06 06:32:19;;;;;;;7.90;7.10;;;;;;;13.56;73.54;98974.48;109165;1254;58195;-73
2023/05/06 06:34:45;;;;;;;10.80;7.10;;;;;;;13.58;73.48;98971.69;109453;1253;58224;-73
2023/05/06 06:37:12;;;;;;;7.60;6.60;;;;;;;13.72;73.48;98968.78;109280;1252;58254;-74
2023/05/06 06:39:38;;;;;;;8.90;7.00;;;;;;;13.96;73.34;98968.11;109527;1253;58203;-73
2023/05/06 06:42:08;;;;;;;8.60;6.60;;;;;;;14.15;72.54;98967.27;109464;1252;58364;-73
2023/05/06 06:44:34;;;;;;;8.60;6.20;;;;;;;14.29;72.17;98965.39;109481;1253;58248;-73
2023/05/06 06:47:01;;;;;;;12.00;8.50;;;;;;;14.34;71.33;98962.48;109378;1253;58249;-73
2023/05/06 06:49:30;;;;;;;10.40;7.60;;;;;;;14.33;70.76;98962.55;109300;1253;63946;-73
2023/05/06 06:51:56;;;;;;;11.70;7.50;;;;;;;14.32;70.69;98960.14;109499;1253;60152;-72
2023/05/06 06:54:23;;;;;;;9.80;7.20;;;;;;;14.29;70.37;98960.02;109476;1252;64046;-72
2023/05/06 06:56:54;;;;;;;9.40;8.00;;;;;;;14.26;70.73;98952.79;109488;1254;58508;-73
2023/05/06 06:59:21;;;;;;;8.30;7.00;;;;;;;14.31;70.73;98956.81;109529;1252;58033;-73
2023/05/06 07:01:47;;;;;;;10.30;7.30;;;;;;;14.34;70.23;98956.20;109452;1253;64008;-73
2023/05/06 07:04:14;;;;;;;11.10;8.10;;;;;;;14.39;70.59;98949.54;109493;1253;60170;-73
2023/05/06 07:06:40;;;;;;;13.90;7.90;;;;;;;14.50;70.70;98943.59;109472;1252;58168;-73
2023/05/06 07:09:07;;;;;;;12.60;9.20;;;;;;;14.73;70.73;98941.17;109471;1252;58233;-73
2023/05/06 07:11:34;;;;;;;9.00;8.10;;;;;;;14.95;70.36;98939.45;109467;1252;58218;-71
2023/05/06 07:14:00;;;;;;;15.90;12.30;;;;;;;15.10;69.94;98939.74;109537;1252;65061;-73
2023/05/06 07:16:27;;;;;;;13.10;9.30;;;;;;;15.24;69.44;98934.84;109496;1251;58752;-73
2023/05/06 07:18:53;;;;;;;7.90;7.10;;;;;;;15.28;68.70;98934.66;109471;1254;58266;-72
2023/05/06 07:21:20;;;;;;;8.10;7.20;;;;;;;15.25;68.08;98928.52;109441;1254;58249;-73
2023/05/06 07:23:46;;;;;;;8.80;7.20;;;;;;;15.23;68.13;98932.71;109184;1253;58287;-73
2023/05/06 07:26:12;;;;;;;9.10;6.70;;;;;;;15.27;67.82;98931.29;109503;1253;58222;-73
2023/05/06 07:28:39;;;;;;;11.40;7.90;;;;;;;15.32;67.94;98925.14;109507;1252;58152;-73
2023/05/06 07:31:06;;;;;;;8.30;6.70;;;;;;;15.43;67.77;98924.34;109459;1252;64062;-72
2023/05/06 07:33:32;;;;;;;8.10;7.20;;;;;;;15.40;66.81;98919.77;109479;1252;58231;-72
2023/05/06 07:35:59;;;;;;;9.90;6.90;;;;;;;15.31;66.90;98915.60;109490;1253;58138;-74
2023/05/06 07:38:26;;;;;;;10.10;6.70;;;;;;;15.36;67.42;98914.92;109446;1254;63987;-73
2023/05/06 07:40:52;;;;;;;9.40;7.10;;;;;;;15.55;67.90;98916.00;109493;1254;59455;-73
2023/05/06 07:43:20;;;;;;;7.90;6.60;;;;;;;15.78;67.63;98914.31;109413;1253;58572;-72
2023/05/06 07:45:47;;;;;;;8.50;7.30;;;;;;;15.93;66.83;98915.86;109453;1253;58188;-72
2023/05/06 07:48:13;;;;;;;11.20;8.50;;;;;;;15.96;66.07;98914.00;109511;1253;58300;-73
2023/05/06 07:50:40;;;;;;;7.90;6.40;;;;;;;16.00;65.78;98910.71;109442;1253;64017;-73
2023/05/06 07:53:06;;;;;;;6.40;5.70;;;;;;;16.07;64.90;98912.91;109476;1253;58902;-73
2023/05/06 07:55:36;;;;;;;7.40;6.50;;;;;;;16.17;65.16;98911.30;109463;1252;58220;-72
2023/05/06 07:58:02;;;;;;;10.20;7.10;;;;;;;16.31;64.16;98908.96;109411;1253;58188;-73
2023/05/06 08:00:29;;;;;;;6.70;6.00;;;;;;;16.38;64.03;98910.43;109492;1253;58174;-73
2023/05/06 08:02:55;;;;;;;6.70;6.00;;;;;;;16.51;63.99;98908.23;109454;1252;65231;-74
2023/05/06 08:05:22;;;;;;;6.90;6.30;;;;;;;16.65;63.58;98902.34;109486;1253;58234;-74
2023/05/06 08:07:49;;;;;;;9.10;6.90;;;;;;;16.79;63.24;98901.10;109449;1253;58264;-73
2023/05/06 08:10:16;;;;;;;8.70;6.30;;;;;;;16.96;63.30;98898.61;109489;1253;58184;-73
2023/05/06 08:12:43;;;;;;;6.60;5.90;;;;;;;17.13;62.15;98893.77;109473;1253;58086;-74
2023/05/06 08:15:10;;;;;;;7.00;6.30;;;;;;;17.07;61.85;98895.05;109492;1252;64295;-73
2023/05/06 08:17:36;;;;;;;7.10;6.00;;;;;;;17.05;62.10;98900.39;109489;1252;60170;-73
2023/05/06 08:20:03;;;;;;;7.00;5.80;;;;;;;17.11;62.65;98902.19;109311;1253;65006;-73
2023/05/06 08:22:30;;;;;;;7.50;6.80;;;;;;;17.18;62.55;98898.37;109475;1252;58175;-73
2023/05/06 08:24:57;;;;;;;8.60;6.80;;;;;;;17.24;62.83;98895.90;109439;1254;58262;-72
2023/05/06 08:27:24;;;;;;;7.30;6.60;;;;;;;17.23;62.08;98892.79;109462;1254;63983;-73
2023/05/06 08:29:50;;;;;;;9.50;6.30;;;;;;;17.07;61.98;98896.73;109173;1253;59182;-73
2023/05/06 08:32:17;;;;;;;8.60;7.60;;;;;;;16.92;62.65;98897.98;109439;1252;64061;-72
2023/05/06 08:34:44;;;;;;;11.00;8.60;;;;;;;16.81;62.71;98900.25;109457;1254;58140;-73
2023/05/06 08:37:10;;;;;;;8.40;7.10;;;;;;;16.62;62.30;98902.45;109217;1252;58222;-73
2023/05/06 08:39:36;;;;;;;7.00;6.30;;;;;;;16.43;63.07;98901.05;109456;1254;58763;-73
2023/05/06 08:42:08;;;;;;;8.90;7.40;;;;;;;16.41;63.67;98898.54;109360;1254;62228;-73
2023/05/06 08:44:35;;;;;;;9.90;6.60;;;;;;;16.37;63.49;98895.34;109466;1254;62830;-73
2023/05/06 08:47:01;;;;;;;7.20;6.50;;;;;;;16.27;63.55;98889.20;109464;1252;58196;-73
2023/05/06 08:49:28;;;;;;;8.90;6.00;;;;;;;16.26;63.80;98884.70;109456;1253;58283;-73
2023/05/06 08:51:56;;;;;;;8.20;6.60;;;;;;;16.21;63.61;98879.91;109486;1253;65219;-74
2023/05/06 08:54:25;;;;;;;9.30;7.40;;;;;;;16.14;63.93;98879.13;109488;1252;60309;-73
2023/05/06 08:56:55;;;;;;;7.40;6.20;;;;;;;16.15;63.89;98878.56;109457;1253;64083;-73
2023/05/06 08:59:23;;;;;;;;;;;;;;;16.07;63.73;98874.42;109505;1253;58235;-74
2023/05/06 09:01:50;;;;;;;7.60;6.60;;;;;;;15.98;64.01;98870.39;109483;1253;58087;-74
2023/05/06 09:04:18;;;;;;;8.90;6.80;;;;;;;15.92;63.86;98867.39;109487;1253;65206;-74
2023/05/06 09:06:45;;;;;;;9.10;6.60;;;;;;;15.86;64.17;98865.45;109370;1253;59886;-73
2023/05/06 09:09:13;;;;;;;8.50;6.70;;;;;;;15.88;64.56;98862.60;109359;1253;64193;-73
2023/05/06 09:11:40;;;;;;;7.40;6.60;;;;;;;15.95;64.63;98858.36;109454;1252;58646;-73
2023/05/06 09:14:12;;;;;;;8.70;6.50;;;;;;;15.95;64.70;98846.67;109462;1254;58242;-74
2023/05/06 09:16:42;;;;;;;9.10;6.90;;;;;;;15.97;64.79;98844.89;109387;1252;65253;-74
2023/05/06 09:19:10;;;;;;;7.70;6.80;;;;;;;15.94;65.02;98841.05;109468;1253;58901;-73
2023/05/06 09:21:42;;;;;;;16.00;7.70;;;;;;;15.89;65.35;98842.40;109463;1251;62831;-73
2023/05/06 09:24:11;;;;;;;14.60;7.50;;;;;;;15.77;65.59;98843.84;109466;1252;58456;-73
2023/05/06 09:26:39;;;;;;;9.40;7.40;;;;;;;15.61;66.18;98850.48;109465;1252;58408;-73
2023/05/06 09:29:06;;;;;;;8.70;7.00;;;;;;;15.48;66.64;98853.55;109458;1252;64018;-73
2023/05/06 09:31:39;;;;;;;8.60;7.10;;;;;;;15.39;67.39;98854.38;109495;1252;60714;-75
2023/05/06 09:34:06;;;;;;;9.00;7.30;;;;;;;15.26;67.99;98850.88;109496;1253;64245;-73
2023/05/06 09:36:33;;;;;;;9.40;7.40;;;;;;;15.15;68.61;98850.19;109444;1252;58258;-73
2023/05/06 09:38:59;;;;;;;10.20;7.60;;;;;;;15.07;68.82;98855.27;109453;1252;58444;-73
2023/05/06 09:41:26;;;;;;;11.20;7.80;;;;;;;14.98;69.37;98860.31;109503;1253;64020;-73
2023/05/06 09:43:53;;;;;;;8.60;7.20;;;;;;;14.88;70.01;98864.19;109152;1254;58997;-72
2023/05/06 09:46:21;;;;;;;10.30;8.10;;;;;;;14.79;70.76;98874.09;109476;1252;62825;-73
2023/05/06 09:48:52;;;;;;;11.00;8.20;;;;;;;14.74;71.59;98886.33;109398;1252;58306;-73
2023/05/06 09:51:20;;;;;;;10.10;8.10;;;;;;;14.69;72.60;98893.42;109467;1253;58214;-73
2023/05/06 09:53:47;;;;;;;9.80;7.80;;;;;;;14.64;72.95;98893.27;109463;1252;66248;-74
2023/05/06 09:56:15;;;;;;;10.40;7.70;;;;;;;14.65;72.88;98891.02;109458;1252;60134;-74
2023/05/06 09:58:42;;;;;;;12.30;8.00;;;;;;;14.66;73.53;98887.05;109446;1253;62693;-73
2023/05/06 10:01:10;;;;;;;10.90;9.00;;;;;;;14.62;74.38;98895.08;109453;1252;58462;-72
2023/05/06 10:03:38;;;;;;;11.30;8.40;;;;;;;14.57;75.32;98895.89;109288;1251;58243;-73
2023/05/06 10:06:05;;;;;;;8.90;7.90;;;;;;;14.51;76.31;98899.02;109449;1251;65285;-73
2023/05/06 10:08:33;;;;;;;11.20;9.50;;;;;;;14.40;76.97;98895.14;109499;1253;60176;-73
2023/05/06 10:11:01;;;;;;;12.60;10.00;;;;;;;14.30;78.10;98892.55;109182;1252;62995;-72
2023/05/06 10:13:28;;;;;;;10.40;8.90;;;;;;;14.26;79.11;98894.34;109162;1253;58277;-73
2023/05/06 10:15:55;;;;;;;11.00;9.50;;;;;;;14.25;79.63;98899.81;109445;1252;58153;-73
2023/05/06 10:18:25;;;;;;;11.50;10.30;;;;;;;14.22;81.05;98905.35;109463;1252;63995;-74
2023/05/06 10:20:54;;;;;;;14.40;12.90;;;;;;;14.22;82.57;98910.02;109451;1253;60585;-74
2023/05/06 10:23:43;;;;;;;18.60;12.20;;;;;;;14.19;83.06;98910.28;109368;1253;64155;-73
2023/05/06 10:26:11;;;;;;;28.30;25.50;;;;;;;14.13;84.86;98916.46;109436;1252;58138;-73
2023/05/06 10:28:42;;;;;;;21.20;15.30;;;;;;;14.03;85.93;98911.23;109464;1252;58302;-74
2023/05/06 10:31:11;;;;;;;18.70;14.00;;;;;;;13.96;86.32;98900.52;109453;1252;64082;-73
2023/05/06 10:33:44;;;;;;;16.40;13.60;;;;;;;13.90;86.91;98894.11;109468;1252;60179;-74
2023/05/06 10:36:18;;;;;;;16.50;14.60;;;;;;;13.82;87.76;98887.77;109468;1252;62528;-73
2023/05/06 10:38:49;;;;;;;17.20;13.00;;;;;;;13.75;89.07;98880.34;109315;1255;58318;-73
2023/05/06 10:41:16;;;;;;;16.90;13.80;;;;;;;13.68;90.46;98871.44;109511;1252;58202;-73
2023/05/06 10:43:44;;;;;;;13.90;11.40;;;;;;;13.60;91.99;98864.04;109481;1252;64052;-73
2023/05/06 10:46:15;;;;;;;14.70;10.50;;;;;;;13.48;94.19;98858.23;109469;1252;58904;-73
2023/05/06 10:49:10;;;;;;;14.90;11.10;;;;;;;13.36;96.33;98857.11;109436;1252;62889;-74
2023/05/06 10:51:37;;;;;;;12.20;10.80;;;;;;;13.23;99.06;98849.71;109488;1251;58174;-73
2023/05/06 10:54:08;;;;;;;15.50;12.10;;;;;;;13.10;100.00;98850.23;109479;1252;58208;-73
2023/05/06 10:56:35;;;;;;;14.00;12.40;;;;;;;13.00;100.00;98852.77;109488;1252;64125;-74
2023/05/06 10:59:10;;;;;;;13.10;11.60;;;;;;;12.96;100.00;98854.14;109435;1253;58736;-73
2023/05/06 11:01:39;;;;;;;14.90;12.80;;;;;;;12.91;100.00;98849.39;109449;1252;64101;-73
2023/05/06 11:04:08;;;;;;;12.90;11.00;;;;;;;12.81;100.00;98857.86;109426;1252;58106;-73
2023/05/06 11:06:36;;;;;;;12.70;11.30;;;;;;;12.76;100.00;98866.98;109264;1252;58243;-73
2023/05/06 11:09:04;;;;;;;13.20;11.00;;;;;;;12.74;100.00;98866.72;109485;1252;65246;-73
2023/05/06 11:12:03;;;;;;;14.10;11.90;;;;;;;12.73;100.00;98863.63;109452;1253;58629;-72
2023/05/06 11:14:33;;;;;;;13.40;11.50;;;;;;;12.69;100.00;98860.35;109483;1252;62758;-72
2023/05/06 11:17:30;;;;;;;14.30;12.80;;;;;;;12.67;100.00;98861.73;109442;1254;58202;-73
2023/05/06 11:20:20;;;;;;;12.80;11.60;;;;;;;12.65;100.00;98849.41;109424;1252;58224;-73
2023/05/06 11:22:46;;;;;;;12.00;10.50;;;;;;;12.66;100.00;98848.45;109460;1252;65284;-74
2023/05/06 11:25:13;;;;;;;14.30;12.20;;;;;;;12.68;100.00;98852.44;109437;1252;60604;-72